sensor_id;sensor_type;location;lat;lon;timestamp;pressure;altitude;pressure_sealevel;temperature;humidity
15444;BME280;7822;48.146;11.576;2023-02-15T00:01:37;96405.53;;;13.79;53.96
15444;BME280;7822;48.146;11.576;2023-02-15T00:04:06;96404.56;;;13.80;54.29
15444;BME280;7822;48.146;11.576;2023-02-15T00:06:35;96402.78;;;13.80;54.18
15444;BME280;7822;48.146;11.576;2023-02-15T00:09:03;96408.84;;;13.81;54.40
15444;BME280;7822;48.146;11.576;2023-02-15T00:11:31;96401.03;;;13.81;54.27
15444;BME280;7822;48.146;11.576;2023-02-15T00:14:10;96402.78;;;13.80;54.53
15444;BME280;7822;48.146;11.576;2023-02-15T00:16:38;96393.19;;;13.81;54.75
15444;BME280;7822;48.146;11.576;2023-02-15T00:19:07;96388.78;;;13.81;54.91
15444;BME280;7822;48.146;11.576;2023-02-15T00:21:38;96396.63;;;13.81;54.75
15444;BME280;7822;48.146;11.576;2023-02-15T00:24:07;96399.13;;;13.83;55.14
15444;BME280;7822;48.146;11.576;2023-02-15T00:26:37;96394.84;;;13.82;55.27
15444;BME280;7822;48.146;11.576;2023-02-15T00:29:06;96392.25;;;13.82;55.29
15444;BME280;7822;48.146;11.576;2023-02-15T00:31:34;96399.97;;;13.83;55.24
15444;BME280;7822;48.146;11.576;2023-02-15T00:34:02;96398.28;;;13.82;55.65
15444;BME280;7822;48.146;11.576;2023-02-15T00:36:30;96394.75;;;13.83;55.32
15444;BME280;7822;48.146;11.576;2023-02-15T00:38:59;96393.91;;;13.83;55.49
15444;BME280;7822;48.146;11.576;2023-02-15T00:41:26;96399.00;;;13.84;55.72
15444;BME280;7822;48.146;11.576;2023-02-15T00:43:54;96392.94;;;13.84;55.51
15444;BME280;7822;48.146;11.576;2023-02-15T00:46:22;96392.03;;;13.85;55.58
15444;BME280;7822;48.146;11.576;2023-02-15T00:48:49;96390.34;;;13.84;55.57
15444;BME280;7822;48.146;11.576;2023-02-15T00:51:18;96379.91;;;13.84;55.53
15444;BME280;7822;48.146;11.576;2023-02-15T00:53:47;96378.16;;;13.84;55.70
15444;BME280;7822;48.146;11.576;2023-02-15T00:56:16;96379.81;;;13.85;55.55
15444;BME280;7822;48.146;11.576;2023-02-15T00:58:43;96373.75;;;13.85;55.86
15444;BME280;7822;48.146;11.576;2023-02-15T01:01:13;96369.38;;;13.85;55.76
15444;BME280;7822;48.146;11.576;2023-02-15T01:03:41;96375.53;;;13.84;55.92
15444;BME280;7822;48.146;11.576;2023-02-15T01:06:10;96376.38;;;13.85;56.17
15444;BME280;7822;48.146;11.576;2023-02-15T01:08:38;96365.09;;;13.84;55.89
15444;BME280;7822;48.146;11.576;2023-02-15T01:11:08;96359.03;;;13.84;56.19
15444;BME280;7822;48.146;11.576;2023-02-15T01:13:37;96363.47;;;13.83;56.20
15444;BME280;7822;48.146;11.576;2023-02-15T01:16:05;96365.09;;;13.84;56.23
15444;BME280;7822;48.146;11.576;2023-02-15T01:18:34;96358.13;;;13.85;56.65
15444;BME280;7822;48.146;11.576;2023-02-15T01:21:09;96350.41;;;13.83;56.05
15444;BME280;7822;48.146;11.576;2023-02-15T01:23:37;96359.03;;;13.84;56.01
15444;BME280;7822;48.146;11.576;2023-02-15T01:26:04;96348.63;;;13.84;56.27
15444;BME280;7822;48.146;11.576;2023-02-15T01:28:32;96351.22;;;13.84;56.42
15444;BME280;7822;48.146;11.576;2023-02-15T01:31:05;96348.63;;;13.84;56.40
15444;BME280;7822;48.146;11.576;2023-02-15T01:33:34;96341.63;;;13.84;56.23
15444;BME280;7822;48.146;11.576;2023-02-15T01:36:03;96345.06;;;13.85;56.31
15444;BME280;7822;48.146;11.576;2023-02-15T01:38:31;96341.63;;;13.84;56.29
15444;BME280;7822;48.146;11.576;2023-02-15T01:40:58;96344.22;;;13.84;56.38
15444;BME280;7822;48.146;11.576;2023-02-15T01:43:41;96341.63;;;13.84;56.47
15444;BME280;7822;48.146;11.576;2023-02-15T01:46:13;96336.41;;;13.84;56.56
15444;BME280;7822;48.146;11.576;2023-02-15T01:48:44;96330.34;;;13.84;56.34
15444;BME280;7822;48.146;11.576;2023-02-15T01:51:13;96334.78;;;13.83;56.55
15444;BME280;7822;48.146;11.576;2023-02-15T01:53:43;96339.03;;;13.84;56.44
15444;BME280;7822;48.146;11.576;2023-02-15T01:56:17;96335.56;;;13.84;56.60
15444;BME280;7822;48.146;11.576;2023-02-15T01:58:47;96331.31;;;13.83;56.25
15444;BME280;7822;48.146;11.576;2023-02-15T02:01:18;96338.19;;;13.84;56.45
15444;BME280;7822;48.146;11.576;2023-02-15T02:03:53;96332.97;;;13.84;56.74
15444;BME280;7822;48.146;11.576;2023-02-15T02:06:24;96332.97;;;13.84;56.66
15444;BME280;7822;48.146;11.576;2023-02-15T02:08:53;96326.19;;;13.81;56.83
15444;BME280;7822;48.146;11.576;2023-02-15T02:11:22;96323.50;;;13.83;57.02
15444;BME280;7822;48.146;11.576;2023-02-15T02:13:50;96321.72;;;13.83;56.74
15444;BME280;7822;48.146;11.576;2023-02-15T02:16:24;96313.91;;;13.83;56.82
15444;BME280;7822;48.146;11.576;2023-02-15T02:19:04;96319.13;;;13.83;56.90
15444;BME280;7822;48.146;11.576;2023-02-15T02:21:53;96314.84;;;13.82;56.99
15444;BME280;7822;48.146;11.576;2023-02-15T02:24:44;96317.31;;;13.84;56.67
15444;BME280;7822;48.146;11.576;2023-02-15T02:27:29;96318.16;;;13.84;56.91
15444;BME280;7822;48.146;11.576;2023-02-15T02:30:22;96321.59;;;13.85;56.92
15444;BME280;7822;48.146;11.576;2023-02-15T02:33:26;96315.66;;;13.83;56.70
15444;BME280;7822;48.146;11.576;2023-02-15T02:36:02;96310.31;;;13.84;56.97
15444;BME280;7822;48.146;11.576;2023-02-15T02:38:38;96310.31;;;13.84;57.05
15444;BME280;7822;48.146;11.576;2023-02-15T02:41:20;96307.72;;;13.84;57.02
15444;BME280;7822;48.146;11.576;2023-02-15T02:43:56;96306.78;;;13.85;56.98
15444;BME280;7822;48.146;11.576;2023-02-15T02:46:32;96315.53;;;13.84;57.05
15444;BME280;7822;48.146;11.576;2023-02-15T02:49:04;96307.72;;;13.84;56.78
15444;BME280;7822;48.146;11.576;2023-02-15T02:51:32;96315.53;;;13.84;57.11
15444;BME280;7822;48.146;11.576;2023-02-15T02:54:03;96312.94;;;13.84;57.06
15444;BME280;7822;48.146;11.576;2023-02-15T02:56:36;96311.28;;;13.83;57.26
15444;BME280;7822;48.146;11.576;2023-02-15T02:59:09;96312.09;;;13.84;57.04
15444;BME280;7822;48.146;11.576;2023-02-15T03:01:41;96306.06;;;13.83;57.20
15444;BME280;7822;48.146;11.576;2023-02-15T03:04:14;96311.28;;;13.83;57.19
15444;BME280;7822;48.146;11.576;2023-02-15T03:06:46;96313.91;;;13.83;57.26
15444;BME280;7822;48.146;11.576;2023-02-15T03:09:18;96316.50;;;13.83;57.15
15444;BME280;7822;48.146;11.576;2023-02-15T03:11:49;96313.06;;;13.83;57.22
15444;BME280;7822;48.146;11.576;2023-02-15T03:14:18;96312.22;;;13.82;57.08
15444;BME280;7822;48.146;11.576;2023-02-15T03:16:47;96306.16;;;13.82;57.27
15444;BME280;7822;48.146;11.576;2023-02-15T03:19:21;96309.50;;;13.84;57.29
15444;BME280;7822;48.146;11.576;2023-02-15T03:21:54;96306.06;;;13.83;57.20
15444;BME280;7822;48.146;11.576;2023-02-15T03:24:32;96303.47;;;13.83;57.24
15444;BME280;7822;48.146;11.576;2023-02-15T03:27:04;96306.88;;;13.84;57.48
15444;BME280;7822;48.146;11.576;2023-02-15T03:29:34;96300.88;;;13.83;57.20
15444;BME280;7822;48.146;11.576;2023-02-15T03:32:07;96301.78;;;13.82;57.30
15444;BME280;7822;48.146;11.576;2023-02-15T03:34:37;96297.41;;;13.83;57.32
15444;BME280;7822;48.146;11.576;2023-02-15T03:37:10;96298.34;;;13.82;57.24
15444;BME280;7822;48.146;11.576;2023-02-15T03:39:42;96302.72;;;13.81;57.26
15444;BME280;7822;48.146;11.576;2023-02-15T03:42:16;96299.19;;;13.82;57.41
15444;BME280;7822;48.146;11.576;2023-02-15T03:44:51;96302.72;;;13.81;57.41
15444;BME280;7822;48.146;11.576;2023-02-15T03:47:25;96312.22;;;13.82;57.28
15444;BME280;7822;48.146;11.576;2023-02-15T03:50:00;96307.94;;;13.81;57.37
15444;BME280;7822;48.146;11.576;2023-02-15T03:52:29;96305.25;;;13.83;57.24
15444;BME280;7822;48.146;11.576;2023-02-15T03:54:58;96306.88;;;13.84;57.56
15444;BME280;7822;48.146;11.576;2023-02-15T03:57:28;96309.50;;;13.84;57.50
15444;BME280;7822;48.146;11.576;2023-02-15T04:00:16;96307.00;;;13.82;57.44
15444;BME280;7822;48.146;11.576;2023-02-15T04:03:22;96309.63;;;13.82;57.39
15444;BME280;7822;48.146;11.576;2023-02-15T04:05:52;96303.69;;;13.80;57.46
15444;BME280;7822;48.146;11.576;2023-02-15T04:08:20;96308.78;;;13.82;58.02
15444;BME280;7822;48.146;11.576;2023-02-15T04:11:08;96307.94;;;13.81;57.54
15444;BME280;7822;48.146;11.576;2023-02-15T04:13:34;96306.16;;;13.82;57.43
15444;BME280;7822;48.146;11.576;2023-02-15T04:16:02;96307.94;;;13.81;57.67
15444;BME280;7822;48.146;11.576;2023-02-15T04:18:31;96309.63;;;13.82;57.44
15444;BME280;7822;48.146;11.576;2023-02-15T04:21:18;96311.38;;;13.82;57.53
15444;BME280;7822;48.146;11.576;2023-02-15T04:24:04;96313.16;;;13.81;57.81
15444;BME280;7822;48.146;11.576;2023-02-15T04:26:49;96310.47;;;13.83;57.64
15444;BME280;7822;48.146;11.576;2023-02-15T04:29:19;96313.06;;;13.83;57.83
15444;BME280;7822;48.146;11.576;2023-02-15T04:31:47;96315.66;;;13.83;57.79
15444;BME280;7822;48.146;11.576;2023-02-15T04:34:15;96322.53;;;13.84;57.41
15444;BME280;7822;48.146;11.576;2023-02-15T04:36:44;96316.50;;;13.83;57.49
15444;BME280;7822;48.146;11.576;2023-02-15T04:39:13;96308.69;;;13.83;57.76
15444;BME280;7822;48.146;11.576;2023-02-15T04:41:41;96308.69;;;13.83;57.61
15444;BME280;7822;48.146;11.576;2023-02-15T04:44:09;96317.44;;;13.82;57.73
15444;BME280;7822;48.146;11.576;2023-02-15T04:46:37;96310.47;;;13.83;57.68
15444;BME280;7822;48.146;11.576;2023-02-15T04:49:04;96314.84;;;13.82;57.64
15444;BME280;7822;48.146;11.576;2023-02-15T04:51:32;96305.34;;;13.81;57.70
15444;BME280;7822;48.146;11.576;2023-02-15T04:54:01;96305.25;;;13.83;57.73
15444;BME280;7822;48.146;11.576;2023-02-15T04:56:29;96312.22;;;13.82;57.78
15444;BME280;7822;48.146;11.576;2023-02-15T04:58:57;96309.75;;;13.81;57.76
15444;BME280;7822;48.146;11.576;2023-02-15T05:01:25;96310.56;;;13.81;57.47
15444;BME280;7822;48.146;11.576;2023-02-15T05:03:52;96308.91;;;13.80;57.90
15444;BME280;7822;48.146;11.576;2023-02-15T05:06:20;96309.63;;;13.82;57.78
15444;BME280;7822;48.146;11.576;2023-02-15T05:08:48;96313.91;;;13.83;58.01
15444;BME280;7822;48.146;11.576;2023-02-15T05:11:17;96311.28;;;13.83;57.42
15444;BME280;7822;48.146;11.576;2023-02-15T05:13:45;96314.72;;;13.84;57.66
15444;BME280;7822;48.146;11.576;2023-02-15T05:16:12;96310.31;;;13.84;57.36
15444;BME280;7822;48.146;11.576;2023-02-15T05:18:40;96302.38;;;13.86;57.69
15444;BME280;7822;48.146;11.576;2023-02-15T05:21:07;96312.72;;;13.87;57.75
15444;BME280;7822;48.146;11.576;2023-02-15T05:23:35;96300.47;;;13.88;57.53
15444;BME280;7822;48.146;11.576;2023-02-15T05:26:03;96305.59;;;13.89;57.57
15444;BME280;7822;48.146;11.576;2023-02-15T05:28:49;96315.91;;;13.91;57.39
15444;BME280;7822;48.146;11.576;2023-02-15T05:31:18;96313.31;;;13.91;57.82
15444;BME280;7822;48.146;11.576;2023-02-15T05:33:46;96316.63;;;13.93;57.74
15444;BME280;7822;48.146;11.576;2023-02-15T05:36:14;96317.47;;;13.93;57.33
15444;BME280;7822;48.146;11.576;2023-02-15T05:38:42;96309.63;;;13.93;57.59
15444;BME280;7822;48.146;11.576;2023-02-15T05:41:10;96312.25;;;13.93;57.30
15444;BME280;7822;48.146;11.576;2023-02-15T05:43:39;96318.19;;;13.95;57.68
15444;BME280;7822;48.146;11.576;2023-02-15T05:46:08;96312.13;;;13.95;57.74
15444;BME280;7822;48.146;11.576;2023-02-15T05:48:36;96314.72;;;13.95;57.69
15444;BME280;7822;48.146;11.576;2023-02-15T05:51:05;96310.34;;;13.95;57.56
15444;BME280;7822;48.146;11.576;2023-02-15T05:53:35;96315.56;;;13.95;57.45
15444;BME280;7822;48.146;11.576;2023-02-15T05:56:04;96320.78;;;13.95;57.81
15444;BME280;7822;48.146;11.576;2023-02-15T05:58:34;96327.78;;;13.95;57.46
15444;BME280;7822;48.146;11.576;2023-02-15T06:01:08;96331.22;;;13.95;57.38
15444;BME280;7822;48.146;11.576;2023-02-15T06:03:36;96329.56;;;13.94;57.58
15444;BME280;7822;48.146;11.576;2023-02-15T06:06:04;96320.06;;;13.93;57.89
15444;BME280;7822;48.146;11.576;2023-02-15T06:08:33;96319.22;;;13.93;57.79
15444;BME280;7822;48.146;11.576;2023-02-15T06:11:01;96330.63;;;13.92;57.86
15444;BME280;7822;48.146;11.576;2023-02-15T06:13:29;96323.63;;;13.92;57.65
15444;BME280;7822;48.146;11.576;2023-02-15T06:15:57;96328.81;;;13.92;57.49
15444;BME280;7822;48.146;11.576;2023-02-15T06:18:26;96321.13;;;13.91;57.82
15444;BME280;7822;48.146;11.576;2023-02-15T06:20:54;96321.13;;;13.91;58.04
15444;BME280;7822;48.146;11.576;2023-02-15T06:23:21;96325.50;;;13.90;57.77
15444;BME280;7822;48.146;11.576;2023-02-15T06:25:49;96322.91;;;13.90;57.72
15444;BME280;7822;48.146;11.576;2023-02-15T06:28:16;96327.19;;;13.91;57.83
15444;BME280;7822;48.146;11.576;2023-02-15T06:30:44;96327.31;;;13.90;57.88
15444;BME280;7822;48.146;11.576;2023-02-15T06:33:12;96328.13;;;13.90;57.94
15444;BME280;7822;48.146;11.576;2023-02-15T06:35:41;96337.75;;;13.90;58.10
15444;BME280;7822;48.146;11.576;2023-02-15T06:38:08;96332.53;;;13.90;57.82
15444;BME280;7822;48.146;11.576;2023-02-15T06:40:36;96337.63;;;13.91;57.83
15444;BME280;7822;48.146;11.576;2023-02-15T06:43:04;96333.25;;;13.92;57.80
15444;BME280;7822;48.146;11.576;2023-02-15T06:45:31;96334.88;;;13.93;57.61
15444;BME280;7822;48.146;11.576;2023-02-15T06:47:59;96326.22;;;13.92;57.72
15444;BME280;7822;48.146;11.576;2023-02-15T06:50:26;96329.66;;;13.93;57.90
15444;BME280;7822;48.146;11.576;2023-02-15T06:52:58;96337.50;;;13.93;57.72
15444;BME280;7822;48.146;11.576;2023-02-15T06:55:26;96338.47;;;13.92;58.08
15444;BME280;7822;48.146;11.576;2023-02-15T06:57:54;96346.16;;;13.93;57.95
15444;BME280;7822;48.146;11.576;2023-02-15T07:00:22;96343.56;;;13.93;57.81
15444;BME280;7822;48.146;11.576;2023-02-15T07:02:53;96343.41;;;13.95;58.00
15444;BME280;7822;48.146;11.576;2023-02-15T07:05:22;96343.56;;;13.93;57.96
15444;BME280;7822;48.146;11.576;2023-02-15T07:07:50;96345.31;;;13.93;57.86
15444;BME280;7822;48.146;11.576;2023-02-15T07:10:19;96347.00;;;13.94;57.97
15444;BME280;7822;48.146;11.576;2023-02-15T07:12:46;96340.09;;;13.93;57.98
15444;BME280;7822;48.146;11.576;2023-02-15T07:15:15;96347.09;;;13.92;57.98
15444;BME280;7822;48.146;11.576;2023-02-15T07:17:43;96345.44;;;13.91;57.50
15444;BME280;7822;48.146;11.576;2023-02-15T07:20:13;96347.22;;;13.91;57.85
15444;BME280;7822;48.146;11.576;2023-02-15T07:22:41;96348.06;;;13.91;57.88
15444;BME280;7822;48.146;11.576;2023-02-15T07:25:10;96351.50;;;13.92;58.02
15444;BME280;7822;48.146;11.576;2023-02-15T07:27:40;96344.47;;;13.92;57.94
15444;BME280;7822;48.146;11.576;2023-02-15T07:30:11;96348.88;;;13.92;58.04
15444;BME280;7822;48.146;11.576;2023-02-15T07:32:39;96351.50;;;13.92;58.21
15444;BME280;7822;48.146;11.576;2023-02-15T07:35:30;96338.47;;;13.92;58.17
15444;BME280;7822;48.146;11.576;2023-02-15T07:37:58;96334.03;;;13.92;58.01
15444;BME280;7822;48.146;11.576;2023-02-15T07:40:26;96342.00;;;13.91;58.26
15444;BME280;7822;48.146;11.576;2023-02-15T07:42:57;96332.53;;;13.90;57.93
15444;BME280;7822;48.146;11.576;2023-02-15T07:45:25;96336.06;;;13.89;58.15
15444;BME280;7822;48.146;11.576;2023-02-15T07:47:53;96340.34;;;13.90;58.08
15444;BME280;7822;48.146;11.576;2023-02-15T07:50:21;96326.47;;;13.89;58.00
15444;BME280;7822;48.146;11.576;2023-02-15T07:52:48;96331.69;;;13.89;58.06
15444;BME280;7822;48.146;11.576;2023-02-15T07:55:16;96326.47;;;13.89;58.21
15444;BME280;7822;48.146;11.576;2023-02-15T07:57:45;96322.09;;;13.90;57.98
15444;BME280;7822;48.146;11.576;2023-02-15T08:00:16;96320.28;;;13.90;58.11
15444;BME280;7822;48.146;11.576;2023-02-15T08:02:47;96316.03;;;13.89;58.14
15444;BME280;7822;48.146;11.576;2023-02-15T08:05:36;96315.06;;;13.90;57.96
15444;BME280;7822;48.146;11.576;2023-02-15T08:08:04;96316.03;;;13.89;57.90
15444;BME280;7822;48.146;11.576;2023-02-15T08:10:32;96322.91;;;13.90;58.17
15444;BME280;7822;48.146;11.576;2023-02-15T08:13:17;96325.50;;;13.90;58.52
15444;BME280;7822;48.146;11.576;2023-02-15T08:15:49;96318.53;;;13.91;58.21
15444;BME280;7822;48.146;11.576;2023-02-15T08:18:17;96328.13;;;13.90;58.35
15444;BME280;7822;48.146;11.576;2023-02-15T08:20:48;96324.69;;;13.90;58.25
15444;BME280;7822;48.146;11.576;2023-02-15T08:23:16;96318.53;;;13.91;58.22
15444;BME280;7822;48.146;11.576;2023-02-15T08:25:44;96319.47;;;13.90;58.23
15444;BME280;7822;48.146;11.576;2023-02-15T08:28:11;96319.47;;;13.90;57.91
15444;BME280;7822;48.146;11.576;2023-02-15T08:30:39;96319.34;;;13.91;58.14
15444;BME280;7822;48.146;11.576;2023-02-15T08:33:08;96317.69;;;13.90;58.41
15444;BME280;7822;48.146;11.576;2023-02-15T08:35:36;96317.59;;;13.92;58.16
15444;BME280;7822;48.146;11.576;2023-02-15T08:38:04;96320.19;;;13.92;58.33
15444;BME280;7822;48.146;11.576;2023-02-15T08:40:31;96315.91;;;13.91;58.30
15444;BME280;7822;48.146;11.576;2023-02-15T08:43:01;96312.47;;;13.90;58.39
15444;BME280;7822;48.146;11.576;2023-02-15T08:45:28;96310.69;;;13.91;58.27
15444;BME280;7822;48.146;11.576;2023-02-15T08:47:56;96315.91;;;13.91;58.33
15444;BME280;7822;48.146;11.576;2023-02-15T08:50:25;96313.31;;;13.91;58.54
15444;BME280;7822;48.146;11.576;2023-02-15T08:52:52;96315.91;;;13.91;58.14
15444;BME280;7822;48.146;11.576;2023-02-15T08:55:20;96315.91;;;13.91;58.26
15444;BME280;7822;48.146;11.576;2023-02-15T08:57:48;96313.31;;;13.91;58.41
15444;BME280;7822;48.146;11.576;2023-02-15T09:00:16;96320.28;;;13.90;58.43
15444;BME280;7822;48.146;11.576;2023-02-15T09:02:44;96322.91;;;13.90;58.34
15444;BME280;7822;48.146;11.576;2023-02-15T09:05:11;96313.31;;;13.91;58.37
15444;BME280;7822;48.146;11.576;2023-02-15T09:07:41;96309.84;;;13.90;58.13
15444;BME280;7822;48.146;11.576;2023-02-15T09:10:09;96312.47;;;13.90;58.61
15444;BME280;7822;48.146;11.576;2023-02-15T09:12:36;96309.84;;;13.90;58.33
15444;BME280;7822;48.146;11.576;2023-02-15T09:15:05;96314.97;;;13.92;58.44
15444;BME280;7822;48.146;11.576;2023-02-15T09:17:33;96313.19;;;13.92;58.38
15444;BME280;7822;48.146;11.576;2023-02-15T09:20:00;96310.56;;;13.92;58.38
15444;BME280;7822;48.146;11.576;2023-02-15T09:22:28;96307.16;;;13.92;58.49
15444;BME280;7822;48.146;11.576;2023-02-15T09:24:58;96308.94;;;13.91;58.47
15444;BME280;7822;48.146;11.576;2023-02-15T09:27:26;96303.72;;;13.91;58.52
15444;BME280;7822;48.146;11.576;2023-02-15T09:29:54;96304.53;;;13.92;58.56
15444;BME280;7822;48.146;11.576;2023-02-15T09:32:21;96303.72;;;13.91;58.67
15444;BME280;7822;48.146;11.576;2023-02-15T09:34:49;96301.94;;;13.92;58.50
15444;BME280;7822;48.146;11.576;2023-02-15T09:37:16;96304.53;;;13.92;58.22
15444;BME280;7822;48.146;11.576;2023-02-15T09:39:44;96304.41;;;13.93;58.70
15444;BME280;7822;48.146;11.576;2023-02-15T09:42:44;96295.88;;;13.91;58.32
15444;BME280;7822;48.146;11.576;2023-02-15T09:45:27;96303.72;;;13.91;58.44
15444;BME280;7822;48.146;11.576;2023-02-15T09:51:13;96304.53;;;13.92;58.47
15444;BME280;7822;48.146;11.576;2023-02-15T09:53:58;96305.34;;;13.92;58.54
15444;BME280;7822;48.146;11.576;2023-02-15T09:56:31;96311.41;;;13.93;58.57
15444;BME280;7822;48.146;11.576;2023-02-15T09:59:12;96307.16;;;13.92;58.52
15444;BME280;7822;48.146;11.576;2023-02-15T10:01:50;96306.19;;;13.93;58.67
15444;BME280;7822;48.146;11.576;2023-02-15T10:04:35;96310.47;;;13.94;58.50
15444;BME280;7822;48.146;11.576;2023-02-15T10:07:18;96304.41;;;13.93;58.67
15444;BME280;7822;48.146;11.576;2023-02-15T10:10:00;96304.41;;;13.93;58.47
15444;BME280;7822;48.146;11.576;2023-02-15T10:12:42;96308.81;;;13.93;58.61
15444;BME280;7822;48.146;11.576;2023-02-15T10:15:22;96308.81;;;13.93;58.53
15444;BME280;7822;48.146;11.576;2023-02-15T10:18:02;96304.41;;;13.93;58.61
15444;BME280;7822;48.146;11.576;2023-02-15T10:20:39;96295.75;;;13.93;58.68
15444;BME280;7822;48.146;11.576;2023-02-15T10:23:25;96293.97;;;13.93;58.56
15444;BME280;7822;48.146;11.576;2023-02-15T10:26:06;96297.44;;;13.94;58.57
15444;BME280;7822;48.146;11.576;2023-02-15T10:28:42;96287.09;;;13.92;58.50
15444;BME280;7822;48.146;11.576;2023-02-15T10:31:20;96292.22;;;13.94;58.52
15444;BME280;7822;48.146;11.576;2023-02-15T10:34:00;96289.59;;;13.94;58.64
15444;BME280;7822;48.146;11.576;2023-02-15T10:36:49;96293.84;;;13.95;58.55
15444;BME280;7822;48.146;11.576;2023-02-15T10:39:25;96280.81;;;13.95;58.43
15444;BME280;7822;48.146;11.576;2023-02-15T10:42:02;96284.25;;;13.95;58.61
15444;BME280;7822;48.146;11.576;2023-02-15T10:44:42;96273.94;;;13.94;58.44
15444;BME280;7822;48.146;11.576;2023-02-15T10:50:27;96267.69;;;13.96;58.53
15444;BME280;7822;48.146;11.576;2023-02-15T10:53:09;96264.22;;;13.96;58.83
15444;BME280;7822;48.146;11.576;2023-02-15T10:55:50;96266.00;;;13.95;58.54
15444;BME280;7822;48.146;11.576;2023-02-15T10:58:29;96259.84;;;13.96;58.67
15444;BME280;7822;48.146;11.576;2023-02-15T11:01:06;96264.09;;;13.97;58.72
15444;BME280;7822;48.146;11.576;2023-02-15T11:03:54;96257.25;;;13.96;58.78
15444;BME280;7822;48.146;11.576;2023-02-15T11:06:31;96249.41;;;13.96;58.51
15444;BME280;7822;48.146;11.576;2023-02-15T11:09:02;96245.97;;;13.96;58.55
15444;BME280;7822;48.146;11.576;2023-02-15T11:11:34;96246.81;;;13.96;58.74
15444;BME280;7822;48.146;11.576;2023-02-15T11:14:10;96243.38;;;13.96;58.58
15444;BME280;7822;48.146;11.576;2023-02-15T11:16:45;96239.06;;;13.95;58.94
15444;BME280;7822;48.146;11.576;2023-02-15T11:19:19;96238.16;;;13.96;58.57
15444;BME280;7822;48.146;11.576;2023-02-15T11:21:50;96237.31;;;13.95;58.44
15444;BME280;7822;48.146;11.576;2023-02-15T11:24:21;96222.50;;;13.96;58.68
15444;BME280;7822;48.146;11.576;2023-02-15T11:26:53;96220.81;;;13.95;58.58
15444;BME280;7822;48.146;11.576;2023-02-15T11:29:26;96213.84;;;13.95;58.33
15444;BME280;7822;48.146;11.576;2023-02-15T11:31:58;96208.63;;;13.95;58.76
15444;BME280;7822;48.146;11.576;2023-02-15T11:34:31;96207.69;;;13.96;58.67
15444;BME280;7822;48.146;11.576;2023-02-15T11:37:05;96212.91;;;13.96;58.50
15444;BME280;7822;48.146;11.576;2023-02-15T11:39:34;96205.06;;;13.96;58.67
15444;BME280;7822;48.146;11.576;2023-02-15T11:42:07;96205.06;;;13.96;58.71
15444;BME280;7822;48.146;11.576;2023-02-15T11:44:42;96185.13;;;13.95;58.77
15444;BME280;7822;48.146;11.576;2023-02-15T11:47:14;96199.84;;;13.96;58.45
15444;BME280;7822;48.146;11.576;2023-02-15T11:49:45;96187.63;;;13.97;58.58
15444;BME280;7822;48.146;11.576;2023-02-15T11:52:15;96179.78;;;13.97;58.43
15444;BME280;7822;48.146;11.576;2023-02-15T11:54:46;96181.47;;;13.98;58.85
15444;BME280;7822;48.146;11.576;2023-02-15T11:57:19;96181.47;;;13.98;58.60
15444;BME280;7822;48.146;11.576;2023-02-15T11:59:51;96167.59;;;13.97;58.59
15444;BME280;7822;48.146;11.576;2023-02-15T12:02:21;96174.47;;;13.98;58.74
15444;BME280;7822;48.146;11.576;2023-02-15T12:04:56;96173.63;;;13.98;58.38
15444;BME280;7822;48.146;11.576;2023-02-15T12:07:28;96167.44;;;13.99;58.84
15444;BME280;7822;48.146;11.576;2023-02-15T12:10:02;96164.84;;;13.99;58.71
15444;BME280;7822;48.146;11.576;2023-02-15T12:12:34;96162.97;;;14.01;58.63
15444;BME280;7822;48.146;11.576;2023-02-15T12:15:03;96156.09;;;14.00;58.84
15444;BME280;7822;48.146;11.576;2023-02-15T12:17:33;96150.88;;;14.00;58.74
15444;BME280;7822;48.146;11.576;2023-02-15T12:20:06;96153.34;;;14.01;58.53
15444;BME280;7822;48.146;11.576;2023-02-15T12:22:36;96141.25;;;14.00;58.69
15444;BME280;7822;48.146;11.576;2023-02-15T12:25:21;96144.56;;;14.02;58.70
15444;BME280;7822;48.146;11.576;2023-02-15T12:27:49;96138.53;;;14.02;58.62
15444;BME280;7822;48.146;11.576;2023-02-15T12:30:21;96138.41;;;14.03;58.49
15444;BME280;7822;48.146;11.576;2023-02-15T12:32:52;96135.78;;;14.03;58.46
15444;BME280;7822;48.146;11.576;2023-02-15T12:35:27;96130.56;;;14.03;58.59
15444;BME280;7822;48.146;11.576;2023-02-15T12:37:58;96123.56;;;14.04;58.30
15444;BME280;7822;48.146;11.576;2023-02-15T12:40:29;96126.19;;;14.04;58.57
15444;BME280;7822;48.146;11.576;2023-02-15T12:42:57;96129.63;;;14.04;58.45
15444;BME280;7822;48.146;11.576;2023-02-15T12:45:26;96118.34;;;14.04;58.57
15444;BME280;7822;48.146;11.576;2023-02-15T12:48:14;96117.53;;;14.03;58.76
15444;BME280;7822;48.146;11.576;2023-02-15T12:50:45;96121.94;;;14.03;58.76
15444;BME280;7822;48.146;11.576;2023-02-15T12:53:22;96119.44;;;14.01;58.96
15444;BME280;7822;48.146;11.576;2023-02-15T12:55:52;96117.66;;;14.02;58.38
15444;BME280;7822;48.146;11.576;2023-02-15T12:58:22;96114.09;;;14.03;58.72
15444;BME280;7822;48.146;11.576;2023-02-15T13:01:10;96109.00;;;14.01;59.03
15444;BME280;7822;48.146;11.576;2023-02-15T13:04:00;96103.78;;;14.01;58.70
15444;BME280;7822;48.146;11.576;2023-02-15T13:06:32;96108.88;;;14.03;58.83
15444;BME280;7822;48.146;11.576;2023-02-15T13:09:06;96094.19;;;14.02;58.54
15444;BME280;7822;48.146;11.576;2023-02-15T13:11:41;96093.34;;;14.01;58.82
15444;BME280;7822;48.146;11.576;2023-02-15T13:14:17;96085.50;;;14.01;58.74
15444;BME280;7822;48.146;11.576;2023-02-15T13:16:48;96089.09;;;14.00;58.68
15444;BME280;7822;48.146;11.576;2023-02-15T13:19:18;96083.75;;;14.02;58.72
15444;BME280;7822;48.146;11.576;2023-02-15T13:21:50;96088.13;;;14.01;58.93
15444;BME280;7822;48.146;11.576;2023-02-15T13:24:22;96086.34;;;14.02;58.97
15444;BME280;7822;48.146;11.576;2023-02-15T13:26:51;96082.91;;;14.01;58.80
15444;BME280;7822;48.146;11.576;2023-02-15T13:29:36;96075.91;;;14.02;58.67
15444;BME280;7822;48.146;11.576;2023-02-15T13:32:12;96076.75;;;14.02;58.44